Архив погоды в Павловском Посаде

Метеограмма Павловский Посад
Среда, 25 Апреля
Время местн. Темп Ветер Видим Явления Облачность нижн/средн/верх Атм. давл. Влжн Точка росы ВНГО R Сост. почвы Tg s
Напр Скр Прв ур.ст ур.м изм
18:00 +9.8° В,Ю-В 1 - 10 км ливневый дождь облачно 742 754 -0.6 85% +7.4° 1 км - - - -
15:00 +12.6° Ю 3 - 10 км - облачно 742 754 -0.9 53% +3.3° 1 км - - - -
12:00 +11° Ю,Ю-В 3 - 10 км - облачно 743 755 -0.8 55% +2.2° - - - - -
09:00 +6.4° Ю 2 - 10 км ливневый дождь облачно 744 756 -0.3 68% +0.9° 1 км 0 Влажная (без луж) +2° -
06:00 +4.1° В,Ю-В 1 - 10 км - облачно 744 757 -0.3 60% -2.9° - - - - -
03:00 +3.6° В,Ю-В 1 - 10 км - облачно 745 757 -0.6 55% -4.6° - - - - -
00:00 +3.7° В,Ю-В 1 - 10 км - переменная облачность 745 758 -0.6 50% -5.8° - - - - -
Вторник, 24 Апреля
Время местн. Темп Ветер Видим Явления Облачность нижн/средн/верх Атм. давл. Влжн Точка росы ВНГО R Сост. почвы Tg s
Напр Скр Прв ур.ст ур.м изм
21:00 +6.3° В,Ю-В 1 - 10 км - облачно с прояснениями 746 758 -0.2 34% -8.3° более 2.5 км 0 - - -
18:00 +11.1° Ю,Ю-З 1 - 10 км - переменная облачность 746 758 -1 20% -10.8° более 2.5 км - - - -
15:00 +11.2° С-З 2 - 10 км - преимущественно облачно 747 759 -1.1 22% -9.7° более 2.5 км - - - -
12:00 +9.3° С-З 2 - 10 км - ясно 748 760 -0.7 25% -9.9° более 2.5 км - - - -
09:00 +5.6° С-З 2 - 10 км - ясно 749 761 +0.1 36% -8.3° более 2.5 км 0 Влажная (без луж) - -
06:00 -2.6° штиль 0 - 10 км - ясно 749 762 +0.5 88% -4.3° более 2.5 км - - - -
03:00 -3.1° Ю-З 1 - 10 км - ясно 748 761 +0.2 86% -5.1° более 2.5 км - - - -
00:00 -0.5° С 1 - 10 км - ясно 748 761 +0.4 59% -7.4° более 2.5 км - - - -
Понедельник, 23 Апреля
Время местн. Темп Ветер Видим Явления Облачность нижн/средн/верх Атм. давл. Влжн Точка росы ВНГО R Сост. почвы Tg s
Напр Скр Прв ур.ст ур.м изм
21:00 +4.3° З,С-З 2 - 10 км - ясно 748 760 +0.8 38% -8.7° более 2.5 км 0 - - -
18:00 +7.2° С-З 4 - 10 км - ясно 747 759 +0.1 27% -10.4° более 2.5 км - - - -
15:00 +7.4° С-З 5 10 10 км - ясно 747 759 +0.1 26% -10.8° более 2.5 км - - - -
12:00 +5.7° З,С-З 5 11 10 км - переменная облачность 747 759 +0.2 30% -10.4° 1 км - - - -
09:00 +3.2° С,С-З 5 - 10 км - ясно 747 759 +1 34% -11.1° более 2.5 км 0 Влажная (без луж) - -
06:00 -0.7° З,С-З 2 - 10 км - ясно 746 758 +1.1 61% -7.2° более 2.5 км - - - -
03:00 +0.2° З,С-З 2 - 10 км - облачно с прояснениями 745 757 +0.6 62% -6.3° - - - - -
00:00 +1° З,С-З 2 - 10 км - преимущественно облачно 744 756 +0.9 61% -5.7° более 2.5 км - - - -
Воскресенье, 22 Апреля
Время местн. Темп Ветер Видим Явления Облачность нижн/средн/верх Атм. давл. Влжн Точка росы ВНГО R Сост. почвы Tg s
Напр Скр Прв ур.ст ур.м изм
21:00 +1.6° С-З 2 - 10 км небо без изменений {ливневые осадки} преимущественно облачно 743 756 +2 62% -4.8° - 0 - - -
18:00 +2.4° С,С-З 3 - 10 км небо без изменений {ливневые осадки} облачно 741 753 +1.7 67% -3° 1 км - - - -
15:00 +2.4° С-З 5 - 10 км небо без изменений {ливневые осадки} облачно 739 752 +2 66% -3.2° 1 км - - - -